sensor_id;sensor_type;location;lat;lon;timestamp;P1;durP1;ratioP1;P2;durP2;ratioP2
19402;SDS011;9837;48.888;8.998;2024-01-30T00:01:14;4.77;;;3.37;;
19402;SDS011;9837;48.888;8.998;2024-01-30T00:03:40;6.37;;;3.50;;
19402;SDS011;9837;48.888;8.998;2024-01-30T00:06:06;4.23;;;3.17;;
19402;SDS011;9837;48.888;8.998;2024-01-30T00:08:31;6.43;;;3.30;;
19402;SDS011;9837;48.888;8.998;2024-01-30T00:10:58;12.60;;;3.40;;
19402;SDS011;9837;48.888;8.998;2024-01-30T00:13:23;3.97;;;3.20;;
19402;SDS011;9837;48.888;8.998;2024-01-30T00:15:49;5.10;;;3.40;;
19402;SDS011;9837;48.888;8.998;2024-01-30T00:18:14;3.80;;;3.23;;
19402;SDS011;9837;48.888;8.998;2024-01-30T00:20:40;5.67;;;3.37;;
19402;SDS011;9837;48.888;8.998;2024-01-30T00:23:05;4.63;;;3.10;;
19402;SDS011;9837;48.888;8.998;2024-01-30T00:25:31;5.77;;;3.50;;
19402;SDS011;9837;48.888;8.998;2024-01-30T00:27:58;8.47;;;3.77;;
19402;SDS011;9837;48.888;8.998;2024-01-30T00:30:23;6.60;;;4.30;;
19402;SDS011;9837;48.888;8.998;2024-01-30T00:32:49;5.13;;;4.03;;
19402;SDS011;9837;48.888;8.998;2024-01-30T00:35:15;7.27;;;4.20;;
19402;SDS011;9837;48.888;8.998;2024-01-30T00:37:40;5.37;;;3.80;;
19402;SDS011;9837;48.888;8.998;2024-01-30T00:40:06;6.17;;;3.90;;
19402;SDS011;9837;48.888;8.998;2024-01-30T00:42:32;5.80;;;3.80;;
19402;SDS011;9837;48.888;8.998;2024-01-30T00:44:57;6.80;;;3.97;;
19402;SDS011;9837;48.888;8.998;2024-01-30T00:47:23;6.20;;;4.00;;
19402;SDS011;9837;48.888;8.998;2024-01-30T00:49:49;4.90;;;3.70;;
19402;SDS011;9837;48.888;8.998;2024-01-30T00:52:14;6.97;;;3.77;;
19402;SDS011;9837;48.888;8.998;2024-01-30T00:54:40;3.83;;;3.33;;
19402;SDS011;9837;48.888;8.998;2024-01-30T00:57:06;4.37;;;3.43;;
19402;SDS011;9837;48.888;8.998;2024-01-30T00:59:32;8.97;;;3.40;;
19402;SDS011;9837;48.888;8.998;2024-01-30T01:01:57;4.90;;;3.80;;
19402;SDS011;9837;48.888;8.998;2024-01-30T01:04:23;4.97;;;4.07;;
19402;SDS011;9837;48.888;8.998;2024-01-30T01:06:48;4.83;;;3.57;;
19402;SDS011;9837;48.888;8.998;2024-01-30T01:09:14;3.93;;;3.00;;
19402;SDS011;9837;48.888;8.998;2024-01-30T01:11:39;4.33;;;3.37;;
19402;SDS011;9837;48.888;8.998;2024-01-30T01:14:05;6.23;;;3.83;;
19402;SDS011;9837;48.888;8.998;2024-01-30T01:16:30;4.57;;;3.50;;
19402;SDS011;9837;48.888;8.998;2024-01-30T01:18:56;5.87;;;3.40;;
19402;SDS011;9837;48.888;8.998;2024-01-30T01:21:21;6.23;;;3.80;;
19402;SDS011;9837;48.888;8.998;2024-01-30T01:23:48;7.50;;;3.63;;
19402;SDS011;9837;48.888;8.998;2024-01-30T01:26:13;4.90;;;3.30;;
19402;SDS011;9837;48.888;8.998;2024-01-30T01:28:40;5.23;;;3.30;;
19402;SDS011;9837;48.888;8.998;2024-01-30T01:31:06;4.50;;;3.80;;
19402;SDS011;9837;48.888;8.998;2024-01-30T01:33:32;5.60;;;3.90;;
19402;SDS011;9837;48.888;8.998;2024-01-30T01:35:58;6.50;;;3.97;;
19402;SDS011;9837;48.888;8.998;2024-01-30T01:38:24;7.77;;;4.00;;
19402;SDS011;9837;48.888;8.998;2024-01-30T01:40:49;5.07;;;3.57;;
19402;SDS011;9837;48.888;8.998;2024-01-30T01:43:16;6.77;;;4.03;;
19402;SDS011;9837;48.888;8.998;2024-01-30T01:45:41;5.20;;;3.80;;
19402;SDS011;9837;48.888;8.998;2024-01-30T01:48:07;4.80;;;3.53;;
19402;SDS011;9837;48.888;8.998;2024-01-30T01:50:33;7.40;;;4.10;;
19402;SDS011;9837;48.888;8.998;2024-01-30T01:53:00;6.13;;;4.00;;
19402;SDS011;9837;48.888;8.998;2024-01-30T01:55:27;4.97;;;3.93;;
19402;SDS011;9837;48.888;8.998;2024-01-30T01:57:54;4.90;;;3.63;;
19402;SDS011;9837;48.888;8.998;2024-01-30T02:00:20;6.33;;;4.33;;
19402;SDS011;9837;48.888;8.998;2024-01-30T02:02:45;4.40;;;3.93;;
19402;SDS011;9837;48.888;8.998;2024-01-30T02:05:11;5.20;;;3.83;;
19402;SDS011;9837;48.888;8.998;2024-01-30T02:07:37;6.33;;;3.63;;
19402;SDS011;9837;48.888;8.998;2024-01-30T02:10:03;8.67;;;4.33;;
19402;SDS011;9837;48.888;8.998;2024-01-30T02:12:29;7.03;;;4.23;;
19402;SDS011;9837;48.888;8.998;2024-01-30T02:14:55;6.90;;;4.20;;
19402;SDS011;9837;48.888;8.998;2024-01-30T02:17:20;8.67;;;5.57;;
19402;SDS011;9837;48.888;8.998;2024-01-30T02:19:48;7.17;;;5.23;;
19402;SDS011;9837;48.888;8.998;2024-01-30T02:22:13;12.10;;;7.63;;
19402;SDS011;9837;48.888;8.998;2024-01-30T02:24:39;10.07;;;6.63;;
19402;SDS011;9837;48.888;8.998;2024-01-30T02:27:05;10.73;;;6.23;;
19402;SDS011;9837;48.888;8.998;2024-01-30T02:29:31;11.93;;;7.33;;
19402;SDS011;9837;48.888;8.998;2024-01-30T02:31:56;10.80;;;6.50;;
19402;SDS011;9837;48.888;8.998;2024-01-30T02:34:22;6.77;;;5.27;;
19402;SDS011;9837;48.888;8.998;2024-01-30T02:36:48;9.10;;;5.63;;
19402;SDS011;9837;48.888;8.998;2024-01-30T02:39:13;9.77;;;6.47;;
19402;SDS011;9837;48.888;8.998;2024-01-30T02:41:39;9.70;;;6.20;;
19402;SDS011;9837;48.888;8.998;2024-01-30T02:44:05;8.23;;;5.63;;
19402;SDS011;9837;48.888;8.998;2024-01-30T02:46:30;8.60;;;5.47;;
19402;SDS011;9837;48.888;8.998;2024-01-30T02:48:56;9.40;;;5.63;;
19402;SDS011;9837;48.888;8.998;2024-01-30T02:51:22;9.80;;;5.97;;
19402;SDS011;9837;48.888;8.998;2024-01-30T02:53:47;7.13;;;5.03;;
19402;SDS011;9837;48.888;8.998;2024-01-30T02:56:13;6.43;;;4.87;;
19402;SDS011;9837;48.888;8.998;2024-01-30T02:58:39;7.37;;;4.67;;
19402;SDS011;9837;48.888;8.998;2024-01-30T03:01:05;8.37;;;4.50;;
19402;SDS011;9837;48.888;8.998;2024-01-30T03:03:31;6.60;;;4.50;;
19402;SDS011;9837;48.888;8.998;2024-01-30T03:05:56;6.83;;;4.00;;
19402;SDS011;9837;48.888;8.998;2024-01-30T03:08:22;5.00;;;3.80;;
19402;SDS011;9837;48.888;8.998;2024-01-30T03:10:48;5.10;;;3.73;;
19402;SDS011;9837;48.888;8.998;2024-01-30T03:13:13;5.57;;;3.80;;
19402;SDS011;9837;48.888;8.998;2024-01-30T03:15:39;6.00;;;4.20;;
19402;SDS011;9837;48.888;8.998;2024-01-30T03:18:04;7.30;;;4.40;;
19402;SDS011;9837;48.888;8.998;2024-01-30T03:20:30;3.90;;;3.50;;
19402;SDS011;9837;48.888;8.998;2024-01-30T03:22:56;4.63;;;3.70;;
19402;SDS011;9837;48.888;8.998;2024-01-30T03:25:22;5.27;;;3.97;;
19402;SDS011;9837;48.888;8.998;2024-01-30T03:27:48;5.63;;;4.07;;
19402;SDS011;9837;48.888;8.998;2024-01-30T03:30:14;4.70;;;3.60;;
19402;SDS011;9837;48.888;8.998;2024-01-30T03:32:39;7.90;;;4.30;;
19402;SDS011;9837;48.888;8.998;2024-01-30T03:35:05;4.93;;;3.83;;
19402;SDS011;9837;48.888;8.998;2024-01-30T03:37:31;6.93;;;3.30;;
19402;SDS011;9837;48.888;8.998;2024-01-30T03:39:56;3.77;;;3.13;;
19402;SDS011;9837;48.888;8.998;2024-01-30T03:42:22;6.07;;;3.50;;
19402;SDS011;9837;48.888;8.998;2024-01-30T03:44:47;3.57;;;2.80;;
19402;SDS011;9837;48.888;8.998;2024-01-30T03:47:13;4.73;;;3.20;;
19402;SDS011;9837;48.888;8.998;2024-01-30T03:49:39;3.50;;;3.03;;
19402;SDS011;9837;48.888;8.998;2024-01-30T03:52:05;4.67;;;2.60;;
19402;SDS011;9837;48.888;8.998;2024-01-30T03:54:30;3.67;;;3.20;;
19402;SDS011;9837;48.888;8.998;2024-01-30T03:56:56;5.23;;;3.37;;
19402;SDS011;9837;48.888;8.998;2024-01-30T03:59:21;4.90;;;3.43;;
19402;SDS011;9837;48.888;8.998;2024-01-30T04:01:48;5.13;;;3.33;;
19402;SDS011;9837;48.888;8.998;2024-01-30T04:04:20;6.00;;;3.37;;
19402;SDS011;9837;48.888;8.998;2024-01-30T04:06:45;6.23;;;3.77;;
19402;SDS011;9837;48.888;8.998;2024-01-30T04:09:13;5.07;;;3.60;;
19402;SDS011;9837;48.888;8.998;2024-01-30T04:11:39;4.10;;;3.10;;
19402;SDS011;9837;48.888;8.998;2024-01-30T04:14:05;5.43;;;3.60;;
19402;SDS011;9837;48.888;8.998;2024-01-30T04:16:30;5.57;;;3.83;;
19402;SDS011;9837;48.888;8.998;2024-01-30T04:18:56;3.93;;;3.30;;
19402;SDS011;9837;48.888;8.998;2024-01-30T04:21:23;6.20;;;3.50;;
19402;SDS011;9837;48.888;8.998;2024-01-30T04:23:50;6.63;;;4.43;;
19402;SDS011;9837;48.888;8.998;2024-01-30T04:26:16;6.37;;;4.13;;
19402;SDS011;9837;48.888;8.998;2024-01-30T04:28:42;7.13;;;4.33;;
19402;SDS011;9837;48.888;8.998;2024-01-30T04:31:09;4.23;;;3.30;;
19402;SDS011;9837;48.888;8.998;2024-01-30T04:33:34;6.87;;;3.90;;
19402;SDS011;9837;48.888;8.998;2024-01-30T04:36:00;4.90;;;3.40;;
19402;SDS011;9837;48.888;8.998;2024-01-30T04:38:26;5.57;;;3.13;;
19402;SDS011;9837;48.888;8.998;2024-01-30T04:40:51;5.13;;;3.13;;
19402;SDS011;9837;48.888;8.998;2024-01-30T04:43:17;4.17;;;3.37;;
19402;SDS011;9837;48.888;8.998;2024-01-30T04:45:44;4.37;;;2.80;;
19402;SDS011;9837;48.888;8.998;2024-01-30T04:48:09;5.50;;;3.43;;
19402;SDS011;9837;48.888;8.998;2024-01-30T04:50:35;6.30;;;3.00;;
19402;SDS011;9837;48.888;8.998;2024-01-30T04:53:01;5.37;;;3.43;;
19402;SDS011;9837;48.888;8.998;2024-01-30T04:55:26;5.00;;;3.03;;
19402;SDS011;9837;48.888;8.998;2024-01-30T04:57:52;4.77;;;3.23;;
19402;SDS011;9837;48.888;8.998;2024-01-30T05:00:18;3.63;;;2.80;;
19402;SDS011;9837;48.888;8.998;2024-01-30T05:02:43;4.57;;;3.23;;
19402;SDS011;9837;48.888;8.998;2024-01-30T05:05:09;4.63;;;3.50;;
19402;SDS011;9837;48.888;8.998;2024-01-30T05:07:36;4.83;;;3.30;;
19402;SDS011;9837;48.888;8.998;2024-01-30T05:10:01;4.03;;;3.30;;
19402;SDS011;9837;48.888;8.998;2024-01-30T05:12:28;7.73;;;3.67;;
19402;SDS011;9837;48.888;8.998;2024-01-30T05:14:53;7.80;;;3.17;;
19402;SDS011;9837;48.888;8.998;2024-01-30T05:17:19;6.43;;;3.70;;
19402;SDS011;9837;48.888;8.998;2024-01-30T05:19:44;5.27;;;3.70;;
19402;SDS011;9837;48.888;8.998;2024-01-30T05:22:10;5.17;;;3.63;;
19402;SDS011;9837;48.888;8.998;2024-01-30T05:24:36;4.57;;;3.33;;
19402;SDS011;9837;48.888;8.998;2024-01-30T05:27:02;4.67;;;3.40;;
19402;SDS011;9837;48.888;8.998;2024-01-30T05:29:27;5.70;;;3.77;;
19402;SDS011;9837;48.888;8.998;2024-01-30T05:31:53;5.97;;;4.30;;
19402;SDS011;9837;48.888;8.998;2024-01-30T05:34:18;10.13;;;4.77;;
19402;SDS011;9837;48.888;8.998;2024-01-30T05:36:44;8.63;;;5.20;;
19402;SDS011;9837;48.888;8.998;2024-01-30T05:39:09;8.23;;;4.93;;
19402;SDS011;9837;48.888;8.998;2024-01-30T05:41:35;8.80;;;5.20;;
19402;SDS011;9837;48.888;8.998;2024-01-30T05:44:01;5.67;;;4.27;;
19402;SDS011;9837;48.888;8.998;2024-01-30T05:46:26;7.63;;;4.70;;
19402;SDS011;9837;48.888;8.998;2024-01-30T05:48:52;6.63;;;4.27;;
19402;SDS011;9837;48.888;8.998;2024-01-30T05:51:18;6.70;;;5.10;;
19402;SDS011;9837;48.888;8.998;2024-01-30T05:53:43;9.33;;;5.23;;
19402;SDS011;9837;48.888;8.998;2024-01-30T05:56:09;6.90;;;4.50;;
19402;SDS011;9837;48.888;8.998;2024-01-30T05:58:34;9.93;;;5.40;;
19402;SDS011;9837;48.888;8.998;2024-01-30T06:01:00;9.53;;;5.67;;
19402;SDS011;9837;48.888;8.998;2024-01-30T06:03:26;9.33;;;5.53;;
19402;SDS011;9837;48.888;8.998;2024-01-30T06:05:51;8.97;;;5.57;;
19402;SDS011;9837;48.888;8.998;2024-01-30T06:08:17;9.43;;;5.07;;
19402;SDS011;9837;48.888;8.998;2024-01-30T06:10:43;8.07;;;4.80;;
19402;SDS011;9837;48.888;8.998;2024-01-30T06:13:08;8.07;;;4.90;;
19402;SDS011;9837;48.888;8.998;2024-01-30T06:15:34;7.87;;;4.60;;
19402;SDS011;9837;48.888;8.998;2024-01-30T06:17:59;8.70;;;5.00;;
19402;SDS011;9837;48.888;8.998;2024-01-30T06:20:25;8.10;;;3.97;;
19402;SDS011;9837;48.888;8.998;2024-01-30T06:22:50;4.93;;;3.80;;
19402;SDS011;9837;48.888;8.998;2024-01-30T06:25:16;5.77;;;4.30;;
19402;SDS011;9837;48.888;8.998;2024-01-30T06:27:42;8.57;;;5.00;;
19402;SDS011;9837;48.888;8.998;2024-01-30T06:30:08;9.23;;;5.17;;
19402;SDS011;9837;48.888;8.998;2024-01-30T06:32:35;6.60;;;4.03;;
19402;SDS011;9837;48.888;8.998;2024-01-30T06:35:01;7.10;;;4.03;;
19402;SDS011;9837;48.888;8.998;2024-01-30T06:37:27;11.60;;;5.07;;
19402;SDS011;9837;48.888;8.998;2024-01-30T06:39:52;8.80;;;5.13;;
19402;SDS011;9837;48.888;8.998;2024-01-30T06:42:18;5.80;;;3.70;;
19402;SDS011;9837;48.888;8.998;2024-01-30T06:44:43;7.27;;;5.17;;
19402;SDS011;9837;48.888;8.998;2024-01-30T06:47:09;6.53;;;4.50;;
19402;SDS011;9837;48.888;8.998;2024-01-30T06:49:35;6.43;;;4.60;;
19402;SDS011;9837;48.888;8.998;2024-01-30T06:52:04;7.97;;;4.60;;
19402;SDS011;9837;48.888;8.998;2024-01-30T06:54:30;8.63;;;5.10;;
19402;SDS011;9837;48.888;8.998;2024-01-30T06:56:56;8.77;;;4.80;;
19402;SDS011;9837;48.888;8.998;2024-01-30T06:59:21;5.43;;;4.27;;
19402;SDS011;9837;48.888;8.998;2024-01-30T07:01:47;9.30;;;5.70;;
19402;SDS011;9837;48.888;8.998;2024-01-30T07:04:13;8.57;;;5.50;;
19402;SDS011;9837;48.888;8.998;2024-01-30T07:06:38;5.80;;;4.40;;
19402;SDS011;9837;48.888;8.998;2024-01-30T07:09:04;8.73;;;5.47;;
19402;SDS011;9837;48.888;8.998;2024-01-30T07:11:30;7.10;;;5.80;;
19402;SDS011;9837;48.888;8.998;2024-01-30T07:13:57;6.23;;;4.93;;
19402;SDS011;9837;48.888;8.998;2024-01-30T07:16:22;9.20;;;6.60;;
19402;SDS011;9837;48.888;8.998;2024-01-30T07:18:48;18.30;;;7.37;;
19402;SDS011;9837;48.888;8.998;2024-01-30T07:21:14;11.83;;;7.63;;
19402;SDS011;9837;48.888;8.998;2024-01-30T07:23:40;13.97;;;7.80;;
19402;SDS011;9837;48.888;8.998;2024-01-30T07:26:06;11.30;;;6.87;;
19402;SDS011;9837;48.888;8.998;2024-01-30T07:28:33;8.90;;;6.30;;
19402;SDS011;9837;48.888;8.998;2024-01-30T07:30:59;9.53;;;5.27;;
19402;SDS011;9837;48.888;8.998;2024-01-30T07:33:25;5.57;;;3.93;;
19402;SDS011;9837;48.888;8.998;2024-01-30T07:35:54;5.83;;;4.10;;
19402;SDS011;9837;48.888;8.998;2024-01-30T07:38:19;6.13;;;3.60;;
19402;SDS011;9837;48.888;8.998;2024-01-30T07:40:45;5.03;;;3.63;;
19402;SDS011;9837;48.888;8.998;2024-01-30T07:43:11;6.13;;;3.30;;
19402;SDS011;9837;48.888;8.998;2024-01-30T07:45:36;3.87;;;3.13;;
19402;SDS011;9837;48.888;8.998;2024-01-30T07:48:03;5.43;;;3.07;;
19402;SDS011;9837;48.888;8.998;2024-01-30T07:50:30;4.87;;;3.10;;
19402;SDS011;9837;48.888;8.998;2024-01-30T07:52:59;4.17;;;3.13;;
19402;SDS011;9837;48.888;8.998;2024-01-30T07:55:25;4.50;;;3.03;;
19402;SDS011;9837;48.888;8.998;2024-01-30T07:57:53;22.93;;;11.33;;
19402;SDS011;9837;48.888;8.998;2024-01-30T08:00:20;28.13;;;15.07;;
19402;SDS011;9837;48.888;8.998;2024-01-30T08:02:46;35.90;;;17.50;;
19402;SDS011;9837;48.888;8.998;2024-01-30T08:05:12;94.03;;;43.83;;
19402;SDS011;9837;48.888;8.998;2024-01-30T08:07:40;34.13;;;17.87;;
19402;SDS011;9837;48.888;8.998;2024-01-30T08:10:08;26.77;;;14.83;;
19402;SDS011;9837;48.888;8.998;2024-01-30T08:12:36;11.50;;;5.97;;
19402;SDS011;9837;48.888;8.998;2024-01-30T08:15:02;24.87;;;11.97;;
19402;SDS011;9837;48.888;8.998;2024-01-30T08:17:28;7.87;;;4.57;;
19402;SDS011;9837;48.888;8.998;2024-01-30T08:19:53;4.33;;;3.27;;
19402;SDS011;9837;48.888;8.998;2024-01-30T08:22:19;5.20;;;3.00;;
19402;SDS011;9837;48.888;8.998;2024-01-30T08:24:45;5.53;;;3.43;;
19402;SDS011;9837;48.888;8.998;2024-01-30T08:27:11;6.47;;;3.70;;
19402;SDS011;9837;48.888;8.998;2024-01-30T08:29:37;4.00;;;2.93;;
19402;SDS011;9837;48.888;8.998;2024-01-30T08:32:03;6.53;;;2.80;;
19402;SDS011;9837;48.888;8.998;2024-01-30T08:34:30;6.33;;;3.17;;
19402;SDS011;9837;48.888;8.998;2024-01-30T08:36:55;4.37;;;3.20;;
19402;SDS011;9837;48.888;8.998;2024-01-30T08:39:21;5.63;;;3.37;;
19402;SDS011;9837;48.888;8.998;2024-01-30T08:41:46;3.83;;;2.70;;
19402;SDS011;9837;48.888;8.998;2024-01-30T08:44:12;3.60;;;2.97;;
19402;SDS011;9837;48.888;8.998;2024-01-30T08:46:37;5.20;;;2.97;;
19402;SDS011;9837;48.888;8.998;2024-01-30T08:49:02;3.60;;;2.83;;
19402;SDS011;9837;48.888;8.998;2024-01-30T08:51:29;4.00;;;2.90;;
19402;SDS011;9837;48.888;8.998;2024-01-30T08:53:55;5.10;;;3.40;;
19402;SDS011;9837;48.888;8.998;2024-01-30T08:56:21;7.70;;;3.20;;
19402;SDS011;9837;48.888;8.998;2024-01-30T08:58:46;4.40;;;3.30;;
19402;SDS011;9837;48.888;8.998;2024-01-30T09:01:12;5.23;;;3.30;;
19402;SDS011;9837;48.888;8.998;2024-01-30T09:03:37;4.27;;;3.50;;
19402;SDS011;9837;48.888;8.998;2024-01-30T09:06:08;4.87;;;3.13;;
19402;SDS011;9837;48.888;8.998;2024-01-30T09:08:34;7.87;;;3.57;;
19402;SDS011;9837;48.888;8.998;2024-01-30T09:11:00;7.27;;;3.90;;
19402;SDS011;9837;48.888;8.998;2024-01-30T09:13:26;7.20;;;4.67;;
19402;SDS011;9837;48.888;8.998;2024-01-30T09:15:51;11.27;;;6.23;;
19402;SDS011;9837;48.888;8.998;2024-01-30T09:18:17;13.07;;;7.70;;
19402;SDS011;9837;48.888;8.998;2024-01-30T09:20:43;13.70;;;7.37;;
19402;SDS011;9837;48.888;8.998;2024-01-30T09:23:12;6.77;;;4.10;;
19402;SDS011;9837;48.888;8.998;2024-01-30T09:25:38;6.53;;;3.57;;
19402;SDS011;9837;48.888;8.998;2024-01-30T09:28:03;4.00;;;2.60;;
19402;SDS011;9837;48.888;8.998;2024-01-30T09:30:29;3.67;;;2.60;;
19402;SDS011;9837;48.888;8.998;2024-01-30T09:32:55;2.90;;;2.20;;
19402;SDS011;9837;48.888;8.998;2024-01-30T09:35:20;5.77;;;2.77;;
19402;SDS011;9837;48.888;8.998;2024-01-30T09:37:46;6.50;;;2.73;;
19402;SDS011;9837;48.888;8.998;2024-01-30T09:40:11;6.10;;;2.60;;
19402;SDS011;9837;48.888;8.998;2024-01-30T09:42:37;3.37;;;2.43;;
19402;SDS011;9837;48.888;8.998;2024-01-30T09:45:04;5.10;;;2.90;;
19402;SDS011;9837;48.888;8.998;2024-01-30T09:47:31;7.63;;;3.93;;
19402;SDS011;9837;48.888;8.998;2024-01-30T09:50:10;6.43;;;3.50;;
19402;SDS011;9837;48.888;8.998;2024-01-30T09:52:38;8.17;;;2.60;;
19402;SDS011;9837;48.888;8.998;2024-01-30T09:55:04;7.43;;;2.60;;
19402;SDS011;9837;48.888;8.998;2024-01-30T09:57:31;5.13;;;2.80;;
19402;SDS011;9837;48.888;8.998;2024-01-30T09:59:57;3.80;;;2.80;;
19402;SDS011;9837;48.888;8.998;2024-01-30T10:02:23;3.53;;;2.50;;
19402;SDS011;9837;48.888;8.998;2024-01-30T10:04:49;11.27;;;4.03;;
19402;SDS011;9837;48.888;8.998;2024-01-30T10:07:16;9.07;;;4.80;;
19402;SDS011;9837;48.888;8.998;2024-01-30T10:09:45;7.97;;;4.53;;
19402;SDS011;9837;48.888;8.998;2024-01-30T10:12:11;13.73;;;5.03;;
19402;SDS011;9837;48.888;8.998;2024-01-30T10:14:41;8.00;;;4.43;;
19402;SDS011;9837;48.888;8.998;2024-01-30T10:17:07;10.33;;;4.33;;
19402;SDS011;9837;48.888;8.998;2024-01-30T10:19:34;13.50;;;4.93;;
19402;SDS011;9837;48.888;8.998;2024-01-30T10:22:00;10.87;;;4.70;;
19402;SDS011;9837;48.888;8.998;2024-01-30T10:24:26;8.60;;;5.20;;
19402;SDS011;9837;48.888;8.998;2024-01-30T10:26:52;8.97;;;4.63;;
19402;SDS011;9837;48.888;8.998;2024-01-30T10:29:18;4.40;;;3.07;;
19402;SDS011;9837;48.888;8.998;2024-01-30T10:31:44;5.00;;;3.10;;
19402;SDS011;9837;48.888;8.998;2024-01-30T10:34:09;4.63;;;2.93;;
19402;SDS011;9837;48.888;8.998;2024-01-30T10:36:39;3.73;;;2.97;;
19402;SDS011;9837;48.888;8.998;2024-01-30T10:39:08;3.30;;;2.43;;
19402;SDS011;9837;48.888;8.998;2024-01-30T10:41:36;5.40;;;2.37;;
19402;SDS011;9837;48.888;8.998;2024-01-30T10:44:09;8.77;;;4.13;;
19402;SDS011;9837;48.888;8.998;2024-01-30T10:46:37;18.13;;;5.17;;
19402;SDS011;9837;48.888;8.998;2024-01-30T10:49:03;10.73;;;4.03;;
19402;SDS011;9837;48.888;8.998;2024-01-30T10:51:30;3.90;;;3.00;;
19402;SDS011;9837;48.888;8.998;2024-01-30T10:53:56;2.50;;;2.20;;
19402;SDS011;9837;48.888;8.998;2024-01-30T10:56:22;4.43;;;2.67;;
19402;SDS011;9837;48.888;8.998;2024-01-30T10:58:50;6.80;;;3.10;;
19402;SDS011;9837;48.888;8.998;2024-01-30T11:01:17;2.93;;;2.53;;
19402;SDS011;9837;48.888;8.998;2024-01-30T11:03:45;2.97;;;2.47;;
19402;SDS011;9837;48.888;8.998;2024-01-30T11:06:11;4.77;;;2.70;;
19402;SDS011;9837;48.888;8.998;2024-01-30T11:08:39;4.00;;;3.00;;
19402;SDS011;9837;48.888;8.998;2024-01-30T11:11:04;4.53;;;2.67;;
19402;SDS011;9837;48.888;8.998;2024-01-30T11:13:34;4.97;;;3.47;;
19402;SDS011;9837;48.888;8.998;2024-01-30T11:16:03;5.37;;;4.03;;
19402;SDS011;9837;48.888;8.998;2024-01-30T11:18:30;7.00;;;4.83;;
19402;SDS011;9837;48.888;8.998;2024-01-30T11:20:56;17.93;;;6.90;;
19402;SDS011;9837;48.888;8.998;2024-01-30T11:23:23;10.30;;;6.37;;
19402;SDS011;9837;48.888;8.998;2024-01-30T11:25:48;14.20;;;6.20;;
19402;SDS011;9837;48.888;8.998;2024-01-30T11:28:14;11.00;;;7.33;;
19402;SDS011;9837;48.888;8.998;2024-01-30T11:30:41;10.80;;;7.07;;
19402;SDS011;9837;48.888;8.998;2024-01-30T11:33:07;12.70;;;6.97;;
19402;SDS011;9837;48.888;8.998;2024-01-30T11:35:38;14.10;;;7.93;;
19402;SDS011;9837;48.888;8.998;2024-01-30T11:38:05;14.60;;;7.60;;
19402;SDS011;9837;48.888;8.998;2024-01-30T11:40:32;18.47;;;8.27;;
19402;SDS011;9837;48.888;8.998;2024-01-30T11:42:59;11.90;;;7.67;;
19402;SDS011;9837;48.888;8.998;2024-01-30T11:45:26;18.30;;;8.03;;
19402;SDS011;9837;48.888;8.998;2024-01-30T11:47:52;17.00;;;7.27;;
19402;SDS011;9837;48.888;8.998;2024-01-30T11:50:18;11.53;;;7.77;;
19402;SDS011;9837;48.888;8.998;2024-01-30T11:52:44;17.20;;;7.63;;
19402;SDS011;9837;48.888;8.998;2024-01-30T11:55:10;18.50;;;8.90;;
19402;SDS011;9837;48.888;8.998;2024-01-30T11:57:35;13.90;;;7.90;;
19402;SDS011;9837;48.888;8.998;2024-01-30T12:00:02;15.53;;;8.53;;
19402;SDS011;9837;48.888;8.998;2024-01-30T12:02:35;12.23;;;7.03;;
19402;SDS011;9837;48.888;8.998;2024-01-30T12:05:05;13.23;;;7.10;;
19402;SDS011;9837;48.888;8.998;2024-01-30T12:07:32;12.10;;;7.13;;
19402;SDS011;9837;48.888;8.998;2024-01-30T12:09:58;10.20;;;6.23;;
19402;SDS011;9837;48.888;8.998;2024-01-30T12:12:24;16.87;;;6.70;;
19402;SDS011;9837;48.888;8.998;2024-01-30T12:14:51;9.03;;;5.37;;
19402;SDS011;9837;48.888;8.998;2024-01-30T12:17:29;8.37;;;5.57;;
19402;SDS011;9837;48.888;8.998;2024-01-30T12:20:06;8.47;;;5.67;;
19402;SDS011;9837;48.888;8.998;2024-01-30T12:22:53;7.33;;;4.93;;
19402;SDS011;9837;48.888;8.998;2024-01-30T12:25:20;8.40;;;5.00;;
19402;SDS011;9837;48.888;8.998;2024-01-30T12:27:46;8.33;;;4.90;;
19402;SDS011;9837;48.888;8.998;2024-01-30T12:30:16;7.57;;;4.53;;
19402;SDS011;9837;48.888;8.998;2024-01-30T12:32:44;8.50;;;3.90;;
19402;SDS011;9837;48.888;8.998;2024-01-30T12:35:11;7.23;;;3.90;;
19402;SDS011;9837;48.888;8.998;2024-01-30T12:37:38;6.13;;;3.43;;
19402;SDS011;9837;48.888;8.998;2024-01-30T12:40:04;4.93;;;3.60;;
19402;SDS011;9837;48.888;8.998;2024-01-30T12:42:31;5.50;;;3.80;;
19402;SDS011;9837;48.888;8.998;2024-01-30T12:44:57;5.17;;;3.50;;
19402;SDS011;9837;48.888;8.998;2024-01-30T12:47:24;5.67;;;3.87;;
19402;SDS011;9837;48.888;8.998;2024-01-30T12:49:50;5.67;;;3.83;;
19402;SDS011;9837;48.888;8.998;2024-01-30T12:52:19;6.17;;;3.63;;
19402;SDS011;9837;48.888;8.998;2024-01-30T12:54:46;6.97;;;4.00;;
19402;SDS011;9837;48.888;8.998;2024-01-30T12:57:12;7.13;;;4.70;;
19402;SDS011;9837;48.888;8.998;2024-01-30T12:59:38;8.07;;;4.30;;
19402;SDS011;9837;48.888;8.998;2024-01-30T13:02:04;13.13;;;5.03;;
19402;SDS011;9837;48.888;8.998;2024-01-30T13:04:30;11.13;;;5.00;;
19402;SDS011;9837;48.888;8.998;2024-01-30T13:06:56;7.80;;;5.00;;
19402;SDS011;9837;48.888;8.998;2024-01-30T13:09:22;6.73;;;4.77;;
19402;SDS011;9837;48.888;8.998;2024-01-30T13:11:48;5.97;;;4.20;;
19402;SDS011;9837;48.888;8.998;2024-01-30T13:14:15;5.00;;;3.63;;
19402;SDS011;9837;48.888;8.998;2024-01-30T13:16:40;8.30;;;3.87;;
19402;SDS011;9837;48.888;8.998;2024-01-30T13:19:05;5.03;;;3.60;;
19402;SDS011;9837;48.888;8.998;2024-01-30T13:21:31;4.57;;;3.17;;
19402;SDS011;9837;48.888;8.998;2024-01-30T13:23:57;5.23;;;3.27;;
19402;SDS011;9837;48.888;8.998;2024-01-30T13:26:23;5.63;;;3.47;;
19402;SDS011;9837;48.888;8.998;2024-01-30T13:28:48;5.17;;;3.70;;
19402;SDS011;9837;48.888;8.998;2024-01-30T13:31:14;12.57;;;6.83;;
19402;SDS011;9837;48.888;8.998;2024-01-30T13:33:40;6.83;;;5.43;;
19402;SDS011;9837;48.888;8.998;2024-01-30T13:36:06;7.80;;;6.10;;
19402;SDS011;9837;48.888;8.998;2024-01-30T13:38:33;9.47;;;5.00;;
19402;SDS011;9837;48.888;8.998;2024-01-30T13:40:59;5.97;;;4.53;;
19402;SDS011;9837;48.888;8.998;2024-01-30T13:43:25;6.00;;;4.00;;
19402;SDS011;9837;48.888;8.998;2024-01-30T13:45:50;4.80;;;4.03;;
19402;SDS011;9837;48.888;8.998;2024-01-30T13:48:16;4.67;;;3.40;;
19402;SDS011;9837;48.888;8.998;2024-01-30T13:50:42;4.33;;;2.93;;
19402;SDS011;9837;48.888;8.998;2024-01-30T13:53:07;5.40;;;3.43;;
19402;SDS011;9837;48.888;8.998;2024-01-30T13:55:33;7.53;;;4.20;;
19402;SDS011;9837;48.888;8.998;2024-01-30T13:57:59;7.80;;;4.73;;
19402;SDS011;9837;48.888;8.998;2024-01-30T14:00:26;12.90;;;5.03;;
19402;SDS011;9837;48.888;8.998;2024-01-30T14:02:52;8.07;;;4.97;;
19402;SDS011;9837;48.888;8.998;2024-01-30T14:05:19;10.57;;;4.53;;
19402;SDS011;9837;48.888;8.998;2024-01-30T14:07:46;7.20;;;3.77;;
19402;SDS011;9837;48.888;8.998;2024-01-30T14:10:12;5.33;;;3.10;;
19402;SDS011;9837;48.888;8.998;2024-01-30T14:12:37;4.17;;;2.80;;
19402;SDS011;9837;48.888;8.998;2024-01-30T14:15:03;3.20;;;2.23;;
19402;SDS011;9837;48.888;8.998;2024-01-30T14:17:29;3.70;;;2.60;;
19402;SDS011;9837;48.888;8.998;2024-01-30T14:19:54;2.27;;;2.07;;
19402;SDS011;9837;48.888;8.998;2024-01-30T14:22:20;3.10;;;2.30;;
19402;SDS011;9837;48.888;8.998;2024-01-30T14:24:45;3.47;;;2.90;;
19402;SDS011;9837;48.888;8.998;2024-01-30T14:27:11;10.07;;;5.40;;
19402;SDS011;9837;48.888;8.998;2024-01-30T14:29:37;4.37;;;3.97;;
19402;SDS011;9837;48.888;8.998;2024-01-30T14:32:03;6.43;;;4.30;;
19402;SDS011;9837;48.888;8.998;2024-01-30T14:34:29;6.97;;;4.90;;
19402;SDS011;9837;48.888;8.998;2024-01-30T14:36:54;14.43;;;6.30;;
19402;SDS011;9837;48.888;8.998;2024-01-30T14:39:20;9.57;;;5.70;;
19402;SDS011;9837;48.888;8.998;2024-01-30T14:41:45;12.97;;;6.60;;
19402;SDS011;9837;48.888;8.998;2024-01-30T14:44:11;14.03;;;6.80;;
19402;SDS011;9837;48.888;8.998;2024-01-30T14:46:37;13.10;;;6.70;;
19402;SDS011;9837;48.888;8.998;2024-01-30T14:49:03;10.17;;;6.50;;
19402;SDS011;9837;48.888;8.998;2024-01-30T14:51:30;8.53;;;5.63;;